createdAt,value
2018-12-22T00:00:14.130Z,87.28
2018-12-22T00:01:14.100Z,86.25
2018-12-22T00:02:14.210Z,86.87
2018-12-22T00:03:14.107Z,86.52
2018-12-22T00:04:14.069Z,86.66
2018-12-22T00:05:14.075Z,86.73
2018-12-22T00:06:14.046Z,86.98
2018-12-22T00:07:14.035Z,86.98
2018-12-22T00:08:14.021Z,85.85
2018-12-22T00:09:14.018Z,86.46
2018-12-22T00:10:14.031Z,85.30
2018-12-22T00:11:13.998Z,85.03
2018-12-22T00:12:13.975Z,84.72
2018-12-22T00:13:13.964Z,84.88
2018-12-22T00:14:13.961Z,85.23
2018-12-22T00:15:13.981Z,84.68
2018-12-22T00:16:13.947Z,85.50
2018-12-22T00:17:13.919Z,85.13
2018-12-22T00:18:13.914Z,85.03
2018-12-22T00:19:13.906Z,84.82
2018-12-22T00:20:13.886Z,85.23
2018-12-22T00:21:13.901Z,85.03
2018-12-22T00:22:13.918Z,85.33
2018-12-22T00:23:13.863Z,85.44
2018-12-22T00:24:13.842Z,85.64
2018-12-22T00:25:13.833Z,86.22
2018-12-22T00:26:13.848Z,85.95
2018-12-22T00:27:13.816Z,86.36
2018-12-22T00:28:21.951Z,86.66
2018-12-22T00:29:14.792Z,86.87
2018-12-22T00:30:13.784Z,85.54
2018-12-22T00:31:13.782Z,86.25
2018-12-22T00:32:13.751Z,86.98
2018-12-22T00:33:15.682Z,87.18
2018-12-22T00:34:13.732Z,87.08
2018-12-22T00:35:13.723Z,87.08
2018-12-22T00:36:13.728Z,87.18
2018-12-22T00:37:13.692Z,87.18
2018-12-22T00:38:13.687Z,86.87
2018-12-22T00:39:13.690Z,87.18
2018-12-22T00:40:13.662Z,87.38
2018-12-22T00:41:13.671Z,87.43
2018-12-22T00:42:13.642Z,88.31
2018-12-22T00:43:13.628Z,88.10
2018-12-22T00:44:13.629Z,87.90
2018-12-22T00:45:13.625Z,88.10
2018-12-22T00:46:13.644Z,88.24
2018-12-22T00:47:13.589Z,88.31
2018-12-22T00:48:13.580Z,88.24
2018-12-22T00:49:13.560Z,87.90
2018-12-22T00:50:13.566Z,87.32
2018-12-22T00:51:13.675Z,88.21
2018-12-22T00:52:13.536Z,87.38
2018-12-22T00:53:13.517Z,88.41
2018-12-22T00:54:13.521Z,87.28
2018-12-22T00:55:13.508Z,87.02
2018-12-22T00:56:13.503Z,87.43
2018-12-22T00:57:13.479Z,87.02
2018-12-22T00:58:13.479Z,86.98
2018-12-22T00:59:13.457Z,86.71
2018-12-22T01:00:13.843Z,86.81
2018-12-22T01:01:13.451Z,86.30
2018-12-22T01:02:13.419Z,86.60
2018-12-22T01:03:13.408Z,85.47
2018-12-22T01:04:13.401Z,86.19
2018-12-22T01:05:13.382Z,86.09
2018-12-22T01:06:13.392Z,85.78
2018-12-22T01:07:13.363Z,86.09
2018-12-22T01:08:13.356Z,85.89
2018-12-22T01:09:13.338Z,86.50
2018-12-22T01:10:13.331Z,85.47
2018-12-22T01:11:13.340Z,86.40
2018-12-22T01:12:13.335Z,86.40
2018-12-22T01:13:13.298Z,85.89
2018-12-22T01:14:13.282Z,85.58
2018-12-22T01:15:13.274Z,84.66
2018-12-22T01:16:13.258Z,84.55
2018-12-22T01:17:13.273Z,84.55
2018-12-22T01:18:13.243Z,84.45
2018-12-22T01:19:13.230Z,83.83
2018-12-22T01:20:13.214Z,83.73
2018-12-22T01:21:13.205Z,83.83
2018-12-22T01:22:13.282Z,83.73
2018-12-22T01:23:13.191Z,83.63
2018-12-22T01:24:13.173Z,82.81
2018-12-22T01:25:13.164Z,83.12
2018-12-22T01:26:13.149Z,81.16
2018-12-22T01:27:13.154Z,80.65
2018-12-22T01:28:13.128Z,81.16
2018-12-22T01:29:13.124Z,79.49
2018-12-22T01:30:13.115Z,79.73
2018-12-22T01:31:13.088Z,79.73
2018-12-22T01:32:13.099Z,79.59
2018-12-22T01:33:13.071Z,79.59
2018-12-22T01:34:13.061Z,78.29
2018-12-22T01:35:13.042Z,78.77
2018-12-22T01:36:13.048Z,79.01
2018-12-22T01:37:13.040Z,78.46
2018-12-22T01:38:13.014Z,78.29
2018-12-22T01:39:13.004Z,78.91
2018-12-22T01:40:12.994Z,77.95
2018-12-22T01:41:12.986Z,77.68
2018-12-22T01:42:12.992Z,77.64
2018-12-22T01:43:12.954Z,76.75
2018-12-22T01:44:12.946Z,76.20
2018-12-22T01:45:12.936Z,76.24
2018-12-22T01:46:12.937Z,76.31
2018-12-22T01:47:12.928Z,76.14
2018-12-22T01:48:12.900Z,76.04
2018-12-22T01:49:12.892Z,75.38
2018-12-22T01:50:12.875Z,76.41
2018-12-22T01:51:12.869Z,76.00
2018-12-22T01:52:12.858Z,75.93
2018-12-22T01:53:12.858Z,76.24
2018-12-22T01:54:12.830Z,75.93
2018-12-22T01:55:12.821Z,75.73
2018-12-22T01:56:12.816Z,76.14
2018-12-22T01:57:12.801Z,75.62
2018-12-22T01:58:12.801Z,75.21
2018-12-22T01:59:12.780Z,75.42
2018-12-22T02:00:12.816Z,76.14
2018-12-22T02:01:12.779Z,75.11
2018-12-22T02:02:12.751Z,75.21
2018-12-22T02:03:12.750Z,76.04
2018-12-22T02:04:12.723Z,75.83
2018-12-22T02:05:12.709Z,75.93
2018-12-22T02:06:12.703Z,76.38
2018-12-22T02:07:12.690Z,75.87
2018-12-22T02:08:12.690Z,76.07
2018-12-22T02:09:12.674Z,76.79
2018-12-22T02:10:12.657Z,76.45
2018-12-22T02:11:12.640Z,75.76
2018-12-22T02:12:12.625Z,75.87
2018-12-22T02:13:12.648Z,75.73
2018-12-22T02:14:12.615Z,75.45
2018-12-22T02:15:12.593Z,75.15
2018-12-22T02:16:12.584Z,74.84
2018-12-22T02:17:12.576Z,75.04
2018-12-22T02:18:12.582Z,74.94
2018-12-22T02:19:12.547Z,74.43
2018-12-22T02:20:12.541Z,74.12
2018-12-22T02:21:12.524Z,74.43
2018-12-22T02:22:12.511Z,73.91
2018-12-22T02:23:13.103Z,73.61
2018-12-22T02:24:12.494Z,73.91
2018-12-22T02:25:12.487Z,74.22
2018-12-22T02:26:12.483Z,73.71
2018-12-22T02:27:12.470Z,73.91
2018-12-22T02:28:12.465Z,74.22
2018-12-22T02:29:12.437Z,74.43
2018-12-22T02:30:12.440Z,74.43
2018-12-22T02:31:12.417Z,74.43
2018-12-22T02:32:12.407Z,74.32
2018-12-22T02:33:12.416Z,75.25
2018-12-22T02:34:12.385Z,74.74
2018-12-22T02:35:12.377Z,74.43
2018-12-22T02:36:12.356Z,75.35
2018-12-22T02:37:12.350Z,75.15
2018-12-22T02:38:12.369Z,75.76
2018-12-22T02:39:12.329Z,74.43
2018-12-22T02:40:12.319Z,75.45
2018-12-22T02:41:12.306Z,75.87
2018-12-22T02:42:12.299Z,75.25
2018-12-22T02:43:12.288Z,76.28
2018-12-22T02:44:12.284Z,75.87
2018-12-22T02:45:12.262Z,76.21
2018-12-22T02:46:12.242Z,76.38
2018-12-22T02:47:12.255Z,75.90
2018-12-22T02:48:12.223Z,76.82
2018-12-22T02:49:12.256Z,76.72
2018-12-22T02:50:12.209Z,76.93
2018-12-22T02:51:12.194Z,76.00
2018-12-22T02:52:12.179Z,77.03
2018-12-22T02:53:12.167Z,77.03
2018-12-22T02:54:12.171Z,76.31
2018-12-22T02:55:12.138Z,75.70
2018-12-22T02:56:12.140Z,74.98
2018-12-22T02:57:12.118Z,75.29
2018-12-22T02:58:12.107Z,75.59
2018-12-22T02:59:12.127Z,76.04
2018-12-22T03:00:12.092Z,76.21
2018-12-22T03:01:12.078Z,75.29
2018-12-22T03:02:12.072Z,75.29
2018-12-22T03:03:12.055Z,75.59
2018-12-22T03:04:12.065Z,75.70
2018-12-22T03:05:12.027Z,76.21
2018-12-22T03:06:12.043Z,75.80
2018-12-22T03:07:12.010Z,75.80
2018-12-22T03:08:12.001Z,75.80
2018-12-22T03:09:12.020Z,75.59
2018-12-22T03:10:11.973Z,75.63
2018-12-22T03:11:11.965Z,75.93
2018-12-22T03:12:11.960Z,76.14
2018-12-22T03:13:11.940Z,76.45
2018-12-22T03:14:11.948Z,76.55
2018-12-22T03:15:11.922Z,76.25
2018-12-22T03:16:11.921Z,76.86
2018-12-22T03:17:11.899Z,76.86
2018-12-22T03:18:11.888Z,76.14
2018-12-22T03:19:11.887Z,77.48
2018-12-22T03:20:11.863Z,77.17
2018-12-22T03:21:11.858Z,77.48
2018-12-22T03:22:11.835Z,77.51
2018-12-22T03:23:11.841Z,77.06
2018-12-22T03:24:11.815Z,77.48
2018-12-22T03:25:11.819Z,76.86
2018-12-22T03:26:11.793Z,77.58
2018-12-22T03:27:11.781Z,77.06
2018-12-22T03:28:11.798Z,77.10
2018-12-22T03:29:15.872Z,77.72
2018-12-22T03:30:11.762Z,77.48
2018-12-22T03:31:11.744Z,76.97
2018-12-22T03:32:11.731Z,77.06
2018-12-22T03:33:11.853Z,77.62
2018-12-22T03:34:11.707Z,77.68
2018-12-22T03:35:11.719Z,77.20
2018-12-22T03:36:11.681Z,77.48
2018-12-22T03:37:11.672Z,76.76
2018-12-22T03:38:11.666Z,77.06
2018-12-22T03:39:11.643Z,76.65
2018-12-22T03:40:11.669Z,77.31
2018-12-22T03:41:11.623Z,77.62
2018-12-22T03:42:11.612Z,77.06
2018-12-22T03:43:11.600Z,77.20
2018-12-22T03:44:11.592Z,76.86
2018-12-22T03:45:11.728Z,76.86
2018-12-22T03:46:11.570Z,76.45
2018-12-22T03:47:11.554Z,77.31
2018-12-22T03:48:11.543Z,77.06
2018-12-22T03:49:11.531Z,77.41
2018-12-22T03:50:11.548Z,77.72
2018-12-22T03:51:11.519Z,77.62
2018-12-22T03:52:11.503Z,77.72
2018-12-22T03:53:11.490Z,77.51
2018-12-22T03:54:11.500Z,76.90
2018-12-22T03:55:11.483Z,77.31
2018-12-22T03:56:11.460Z,76.79
2018-12-22T03:57:11.439Z,77.31
2018-12-22T03:58:11.433Z,76.79
2018-12-22T03:59:11.421Z,76.79
2018-12-22T04:00:11.431Z,76.90
2018-12-22T04:01:11.398Z,77.62
2018-12-22T04:02:11.389Z,77.00
2018-12-22T04:03:12.042Z,77.20
2018-12-22T04:04:11.366Z,77.20
2018-12-22T04:05:11.368Z,77.51
2018-12-22T04:06:11.343Z,77.51
2018-12-22T04:07:11.337Z,78.03
2018-12-22T04:08:11.321Z,77.65
2018-12-22T04:09:11.307Z,77.41
2018-12-22T04:10:11.319Z,76.90
2018-12-22T04:11:11.289Z,76.90
2018-12-22T04:12:11.274Z,77.31
2018-12-22T04:13:11.267Z,77.20
2018-12-22T04:14:11.272Z,76.79
2018-12-22T04:15:11.264Z,77.10
2018-12-22T04:16:11.222Z,76.83
2018-12-22T04:17:11.211Z,76.21
2018-12-22T04:18:11.204Z,77.20
2018-12-22T04:19:11.194Z,77.00
2018-12-22T04:20:11.207Z,76.52
2018-12-22T04:21:11.192Z,76.62
2018-12-22T04:22:11.157Z,76.11
2018-12-22T04:23:11.147Z,76.42
2018-12-22T04:24:11.152Z,75.87
2018-12-22T04:25:11.130Z,76.11
2018-12-22T04:26:11.131Z,76.83
2018-12-22T04:27:11.100Z,76.21
2018-12-22T04:28:11.095Z,75.80
2018-12-22T04:29:11.078Z,75.35
2018-12-22T04:30:11.075Z,74.98
2018-12-22T04:31:11.074Z,75.15
2018-12-22T04:32:11.050Z,74.57
2018-12-22T04:33:11.038Z,74.95
2018-12-22T04:34:11.029Z,74.43
2018-12-22T04:35:11.011Z,74.33
2018-12-22T04:36:11.018Z,74.33
2018-12-22T04:37:10.985Z,74.33
2018-12-22T04:38:10.982Z,74.12
2018-12-22T04:39:10.968Z,74.43
2018-12-22T04:40:10.965Z,74.26
2018-12-22T04:41:10.971Z,74.33
2018-12-22T04:42:10.943Z,74.22
2018-12-22T04:43:10.928Z,74.12
2018-12-22T04:44:10.917Z,74.26
2018-12-22T04:45:10.897Z,74.33
2018-12-22T04:46:10.906Z,73.95
2018-12-22T04:47:10.881Z,74.12
2018-12-22T04:48:10.867Z,74.46
2018-12-22T04:49:10.853Z,73.64
2018-12-22T04:50:10.841Z,74.22
2018-12-22T04:51:10.862Z,74.12
2018-12-22T04:52:10.816Z,74.05
2018-12-22T04:53:10.815Z,74.05
2018-12-22T04:54:10.795Z,74.26
2018-12-22T04:55:10.787Z,74.15
2018-12-22T04:56:10.798Z,74.05
2018-12-22T04:57:10.764Z,73.85
2018-12-22T04:58:10.751Z,73.64
2018-12-22T04:59:10.746Z,74.26
2018-12-22T05:00:10.733Z,73.95
2018-12-22T05:01:10.738Z,74.05
2018-12-22T05:02:10.707Z,74.05
2018-12-22T05:03:10.812Z,74.15
2018-12-22T05:04:10.683Z,73.64
2018-12-22T05:05:10.680Z,73.85
2018-12-22T05:06:10.688Z,74.05
2018-12-22T05:07:10.656Z,74.36
2018-12-22T05:08:10.640Z,74.36
2018-12-22T05:09:10.627Z,74.46
2018-12-22T05:10:10.619Z,74.26
2018-12-22T05:11:10.609Z,74.15
2018-12-22T05:12:10.613Z,74.36
2018-12-22T05:13:10.578Z,74.46
2018-12-22T05:14:10.570Z,74.57
2018-12-22T05:15:10.565Z,74.36
2018-12-22T05:16:10.556Z,74.57
2018-12-22T05:17:10.564Z,74.77
2018-12-22T05:18:10.535Z,74.50
2018-12-22T05:19:10.513Z,74.60
2018-12-22T05:20:10.501Z,75.01
2018-12-22T05:21:10.493Z,74.91
2018-12-22T05:22:10.505Z,75.08
2018-12-22T05:23:10.472Z,74.67
2018-12-22T05:24:10.459Z,75.18
2018-12-22T05:25:10.447Z,75.01
2018-12-22T05:26:10.433Z,75.01
2018-12-22T05:27:10.437Z,74.98
2018-12-22T05:28:10.417Z,75.01
2018-12-22T05:29:10.403Z,75.01
2018-12-22T05:30:10.389Z,75.42
2018-12-22T05:31:10.399Z,75.39
2018-12-22T05:32:10.397Z,75.39
2018-12-22T05:33:10.371Z,75.52
2018-12-22T05:34:10.349Z,75.70
2018-12-22T05:35:10.344Z,75.42
2018-12-22T05:36:10.323Z,75.42
2018-12-22T05:37:10.339Z,75.42
2018-12-22T05:38:10.303Z,76.14
2018-12-22T05:39:10.301Z,75.94
2018-12-22T05:40:10.281Z,75.12
2018-12-22T05:41:10.264Z,76.35
2018-12-22T05:42:10.267Z,75.84
2018-12-22T05:43:10.247Z,75.94
2018-12-22T05:44:10.232Z,75.94
2018-12-22T05:45:10.219Z,75.84
2018-12-22T05:46:10.211Z,75.94
2018-12-22T05:47:10.223Z,76.04
2018-12-22T05:48:10.193Z,76.25
2018-12-22T05:49:10.177Z,75.80
2018-12-22T05:50:10.173Z,75.94
2018-12-22T05:51:10.151Z,76.14
2018-12-22T05:52:10.142Z,75.52
2018-12-22T05:53:10.153Z,75.42
2018-12-22T05:54:10.118Z,75.08
2018-12-22T05:55:10.112Z,75.42
2018-12-22T05:56:10.103Z,75.42
2018-12-22T05:57:10.086Z,75.22
2018-12-22T05:58:10.088Z,75.63
2018-12-22T05:59:10.064Z,76.14
2018-12-22T06:00:10.051Z,76.21
2018-12-22T06:01:10.041Z,75.94
2018-12-22T06:02:10.026Z,76.25
2018-12-22T06:03:10.052Z,75.63
2018-12-22T06:04:10.011Z,76.25
2018-12-22T06:05:10.001Z,75.63
2018-12-22T06:06:09.984Z,75.94
2018-12-22T06:07:09.976Z,75.90
2018-12-22T06:08:09.987Z,75.73
2018-12-22T06:09:09.949Z,75.84
2018-12-22T06:10:09.942Z,76.35
2018-12-22T06:11:09.931Z,75.84
2018-12-22T06:12:09.917Z,75.32
2018-12-22T06:13:09.928Z,75.42
2018-12-22T06:14:09.897Z,75.32
2018-12-22T06:15:09.879Z,76.14
2018-12-22T06:16:09.872Z,75.49
2018-12-22T06:17:09.862Z,75.52
2018-12-22T06:18:09.861Z,75.22
2018-12-22T06:19:09.835Z,75.32
2018-12-22T06:20:09.828Z,75.42
2018-12-22T06:21:09.815Z,75.42
2018-12-22T06:22:09.807Z,75.84
2018-12-22T06:23:09.813Z,75.70
2018-12-22T06:24:09.793Z,74.91
2018-12-22T06:25:09.783Z,75.42
2018-12-22T06:26:09.761Z,75.42
2018-12-22T06:27:09.744Z,75.42
2018-12-22T06:28:09.749Z,75.42
2018-12-22T06:29:09.731Z,75.42
2018-12-22T06:30:09.724Z,75.52
2018-12-22T06:31:09.713Z,76.14
2018-12-22T06:32:09.689Z,75.42
2018-12-22T06:33:09.701Z,75.22
2018-12-22T06:34:09.667Z,75.42
2018-12-22T06:35:09.660Z,75.52
2018-12-22T06:36:09.643Z,76.04
2018-12-22T06:37:09.635Z,76.04
2018-12-22T06:38:09.622Z,75.73
2018-12-22T06:39:09.622Z,75.84
2018-12-22T06:40:09.609Z,75.94
2018-12-22T06:41:09.590Z,75.63
2018-12-22T06:42:09.583Z,76.04
2018-12-22T06:43:09.574Z,75.73
2018-12-22T06:44:09.579Z,76.25
2018-12-22T06:45:09.552Z,76.14
2018-12-22T06:46:09.636Z,76.04
2018-12-22T06:47:09.533Z,76.04
2018-12-22T06:48:09.511Z,75.84
2018-12-22T06:49:09.515Z,76.04
2018-12-22T06:50:09.487Z,75.73
2018-12-22T06:51:09.477Z,76.86
2018-12-22T06:52:09.469Z,76.04
2018-12-22T06:53:09.452Z,76.35
2018-12-22T06:54:09.467Z,76.25
2018-12-22T06:55:09.436Z,76.25
2018-12-22T06:56:09.425Z,76.49
2018-12-22T06:57:09.409Z,76.59
2018-12-22T06:58:09.413Z,76.70
2018-12-22T06:59:09.412Z,76.49
2018-12-22T07:00:17.418Z,76.49
2018-12-22T07:01:10.364Z,76.49
2018-12-22T07:02:09.353Z,76.90
2018-12-22T07:03:09.347Z,76.18
2018-12-22T07:04:09.357Z,76.59
2018-12-22T07:05:09.322Z,76.49
2018-12-22T07:06:09.305Z,76.79
2018-12-22T07:07:09.297Z,76.39
2018-12-22T07:08:09.384Z,76.28
2018-12-22T07:09:09.287Z,75.94
2018-12-22T07:10:09.268Z,76.28
2018-12-22T07:11:09.252Z,77.11
2018-12-22T07:12:09.239Z,77.11
2018-12-22T07:13:09.231Z,76.90
2018-12-22T07:14:09.233Z,76.76
2018-12-22T07:15:09.213Z,77.00
2018-12-22T07:16:09.195Z,76.90
2018-12-22T07:17:09.181Z,77.31
2018-12-22T07:18:09.175Z,78.03
2018-12-22T07:19:09.183Z,77.07
2018-12-22T07:20:09.156Z,77.28
2018-12-22T07:21:09.137Z,77.17
2018-12-22T07:22:09.127Z,78.10
2018-12-22T07:23:09.120Z,78.03
2018-12-22T07:24:09.139Z,78.24
2018-12-22T07:25:09.096Z,78.55
2018-12-22T07:26:09.095Z,78.65
2018-12-22T07:27:09.072Z,77.93
2018-12-22T07:28:09.056Z,78.75
2018-12-22T07:29:09.047Z,78.03
2018-12-22T07:30:09.075Z,77.83
2018-12-22T07:31:09.023Z,78.55
2018-12-22T07:32:09.024Z,78.55
2018-12-22T07:33:09.005Z,77.72
2018-12-22T07:34:09.000Z,78.24
2018-12-22T07:35:09.007Z,78.24
2018-12-22T07:36:08.966Z,78.75
2018-12-22T07:37:08.965Z,78.65
2018-12-22T07:38:08.951Z,78.38
2018-12-22T07:39:08.945Z,78.58
2018-12-22T07:40:08.955Z,78.75
2018-12-22T07:41:08.910Z,78.14
2018-12-22T07:42:08.940Z,78.34
2018-12-22T07:43:08.895Z,78.86
2018-12-22T07:44:08.883Z,78.86
2018-12-22T07:45:08.887Z,78.75
2018-12-22T07:46:08.859Z,78.86
2018-12-22T07:47:08.844Z,79.30
2018-12-22T07:48:08.836Z,78.69
2018-12-22T07:49:08.826Z,79.47
2018-12-22T07:50:08.840Z,78.96
2018-12-22T07:51:08.798Z,78.69
2018-12-22T07:52:08.784Z,78.65
2018-12-22T07:53:08.785Z,78.34
2018-12-22T07:54:08.768Z,79.93
2018-12-22T07:55:08.775Z,80.02
2018-12-22T07:56:08.741Z,79.93
2018-12-22T07:57:08.732Z,79.00
2018-12-22T07:58:08.725Z,79.30
2018-12-22T07:59:08.710Z,79.82
2018-12-22T08:00:08.718Z,79.41
2018-12-22T08:01:08.708Z,79.10
2018-12-22T08:02:08.697Z,79.20
2018-12-22T08:03:08.664Z,79.82
2018-12-22T08:04:08.658Z,79.82
2018-12-22T08:05:08.653Z,79.72
2018-12-22T08:06:08.632Z,80.02
2018-12-22T08:07:08.618Z,79.72
2018-12-22T08:08:08.609Z,79.93
2018-12-22T08:09:08.598Z,79.82
2018-12-22T08:10:08.608Z,78.96
2018-12-22T08:11:08.578Z,80.02
2018-12-22T08:12:08.577Z,79.72
2018-12-22T08:13:08.555Z,79.93
2018-12-22T08:14:08.541Z,79.61
2018-12-22T08:15:08.550Z,79.72
2018-12-22T08:16:08.520Z,79.79
2018-12-22T08:17:08.513Z,79.82
2018-12-22T08:18:08.496Z,79.79
2018-12-22T08:19:08.485Z,79.68
2018-12-22T08:20:08.474Z,79.79
2018-12-22T08:21:08.479Z,79.68
2018-12-22T08:22:08.637Z,79.88
2018-12-22T08:23:08.445Z,80.09
2018-12-22T08:24:08.428Z,79.88
2018-12-22T08:25:08.415Z,79.79
2018-12-22T08:26:08.431Z,79.82
2018-12-22T08:27:08.400Z,79.72
2018-12-22T08:28:08.388Z,79.51
2018-12-22T08:29:08.378Z,79.93
2018-12-22T08:30:08.359Z,79.72
2018-12-22T08:31:08.385Z,79.61
2018-12-22T08:32:08.346Z,79.68
2018-12-22T08:33:08.323Z,79.99
2018-12-22T08:34:08.318Z,79.93
2018-12-22T08:35:08.309Z,80.02
2018-12-22T08:36:08.316Z,79.93
2018-12-22T08:37:08.288Z,80.23
2018-12-22T08:38:08.279Z,80.23
2018-12-22T08:39:08.256Z,80.23
2018-12-22T08:40:08.261Z,80.65
2018-12-22T08:41:08.260Z,80.65
2018-12-22T08:42:08.225Z,80.33
2018-12-22T08:43:08.216Z,81.26
2018-12-22T08:44:08.201Z,81.33
2018-12-22T08:45:08.200Z,81.12
2018-12-22T08:46:08.203Z,81.88
2018-12-22T08:47:08.170Z,81.98
2018-12-22T08:48:08.178Z,81.98
2018-12-22T08:49:08.155Z,82.60
2018-12-22T08:50:09.355Z,82.74
2018-12-22T08:51:08.141Z,83.01
2018-12-22T08:52:08.112Z,83.22
2018-12-22T08:53:08.101Z,83.47
2018-12-22T08:54:08.091Z,84.08
2018-12-22T08:55:08.086Z,83.73
2018-12-22T08:56:08.093Z,84.19
2018-12-22T08:57:08.328Z,84.05
2018-12-22T08:58:08.049Z,83.94
2018-12-22T08:59:08.037Z,84.08
2018-12-22T09:00:08.024Z,83.77
2018-12-22T09:01:08.043Z,83.87
2018-12-22T09:02:08.003Z,83.36
2018-12-22T09:03:08.004Z,82.84
2018-12-22T09:04:07.997Z,83.26
2018-12-22T09:05:07.968Z,82.91
2018-12-22T09:06:07.956Z,83.01
2018-12-22T09:07:08.051Z,82.81
2018-12-22T09:08:07.936Z,82.91
2018-12-22T09:09:07.933Z,82.29
2018-12-22T09:10:07.912Z,82.60
2018-12-22T09:11:07.895Z,82.70
2018-12-22T09:12:07.912Z,82.70
2018-12-22T09:13:07.875Z,83.01
2018-12-22T09:14:07.881Z,82.70
2018-12-22T09:15:07.868Z,82.29
2018-12-22T09:16:07.842Z,82.60
2018-12-22T09:17:07.859Z,82.40
2018-12-22T09:18:07.822Z,82.19
2018-12-22T09:19:07.811Z,82.70
2018-12-22T09:20:07.805Z,82.40
2018-12-22T09:21:07.786Z,82.60
2018-12-22T09:22:07.802Z,82.70
2018-12-22T09:23:07.778Z,82.60
2018-12-22T09:24:07.758Z,82.81
2018-12-22T09:25:07.745Z,83.01
2018-12-22T09:26:08.580Z,82.70
2018-12-22T09:27:07.746Z,82.19
2018-12-22T09:28:07.705Z,82.40
2018-12-22T09:29:07.709Z,82.70
2018-12-22T09:30:07.692Z,82.81
2018-12-22T09:31:07.683Z,82.29
2018-12-22T09:32:07.694Z,81.77
2018-12-22T09:33:07.658Z,81.16
2018-12-22T09:34:13.294Z,81.47
2018-12-22T09:35:08.630Z,81.77
2018-12-22T09:36:07.622Z,81.77
2018-12-22T09:37:07.636Z,82.50
2018-12-22T09:38:07.596Z,81.37
2018-12-22T09:39:07.664Z,80.95
2018-12-22T09:40:07.578Z,81.26
2018-12-22T09:41:07.562Z,81.67
2018-12-22T09:42:07.555Z,81.77
2018-12-22T09:43:07.564Z,81.57
2018-12-22T09:44:07.526Z,81.05
2018-12-22T09:45:07.515Z,81.05
2018-12-22T09:46:07.509Z,81.16
2018-12-22T09:47:07.499Z,81.16
2018-12-22T09:48:07.505Z,80.75
2018-12-22T09:50:08.611Z,80.85
2018-12-22T09:51:07.455Z,80.85
2018-12-22T09:52:07.444Z,80.65
2018-12-22T09:53:07.574Z,80.75
2018-12-22T09:54:07.426Z,80.54
2018-12-22T09:55:07.405Z,81.05
2018-12-22T09:56:07.395Z,81.26
2018-12-22T09:57:07.387Z,81.05
2018-12-22T09:58:07.391Z,81.37
2018-12-22T09:59:07.360Z,81.16
2018-12-22T10:00:07.347Z,81.26
2018-12-22T10:01:09.516Z,81.47
2018-12-22T10:02:07.330Z,81.16
2018-12-22T10:03:07.338Z,81.20
2018-12-22T10:04:07.302Z,81.16
2018-12-22T10:05:07.294Z,81.47
2018-12-22T10:06:07.282Z,81.37
2018-12-22T10:07:07.270Z,81.05
2018-12-22T10:08:07.289Z,81.77
2018-12-22T10:09:07.249Z,81.61
2018-12-22T10:10:07.234Z,81.47
2018-12-22T10:11:07.225Z,81.40
2018-12-22T10:12:07.208Z,81.81
2018-12-22T10:13:07.230Z,81.47
2018-12-22T10:14:07.193Z,81.71
2018-12-22T10:15:07.179Z,81.30
2018-12-22T10:16:07.178Z,79.86
2018-12-22T10:17:07.156Z,78.83
2018-12-22T10:18:07.290Z,79.24
2018-12-22T10:19:07.134Z,79.03
2018-12-22T10:20:07.127Z,78.62
2018-12-22T10:21:07.112Z,78.62
2018-12-22T10:22:07.100Z,78.45
2018-12-22T10:23:07.117Z,78.76
2018-12-22T10:24:07.093Z,78.72
2018-12-22T10:25:07.066Z,78.14
2018-12-22T10:26:07.053Z,78.76
2018-12-22T10:27:07.050Z,78.04
2018-12-22T10:28:07.057Z,78.11
2018-12-22T10:29:07.080Z,77.48
2018-12-22T10:30:07.007Z,76.87
2018-12-22T10:31:06.997Z,78.62
2018-12-22T10:32:06.992Z,77.38
2018-12-22T10:33:06.992Z,76.42
2018-12-22T10:34:06.968Z,76.66
2018-12-22T10:35:06.958Z,76.11
2018-12-22T10:36:06.942Z,76.11
2018-12-22T10:37:06.930Z,76.35
2018-12-22T10:38:06.922Z,76.66
2018-12-22T10:39:06.931Z,76.66
2018-12-22T10:40:06.892Z,76.15
2018-12-22T10:41:06.890Z,75.39
2018-12-22T10:42:06.875Z,75.18
2018-12-22T10:43:06.867Z,77.08
2018-12-22T10:44:06.884Z,75.63
2018-12-22T10:45:06.850Z,75.53
2018-12-22T10:46:06.826Z,75.53
2018-12-22T10:47:06.824Z,76.25
2018-12-22T10:48:06.806Z,74.91
2018-12-22T10:49:07.698Z,74.60
2018-12-22T10:50:06.804Z,73.88
2018-12-22T10:51:06.774Z,73.98
2018-12-22T10:52:06.764Z,75.01
2018-12-22T10:53:06.753Z,74.08
2018-12-22T10:54:06.758Z,72.71
2018-12-22T10:55:06.726Z,73.16
2018-12-22T10:56:06.726Z,72.85
2018-12-22T10:57:06.702Z,72.64
2018-12-22T10:58:06.694Z,72.64
2018-12-22T10:59:06.769Z,72.85
2018-12-22T11:00:06.669Z,72.64
2018-12-22T11:01:06.663Z,72.44
2018-12-22T11:02:06.643Z,71.92
2018-12-22T11:03:06.653Z,70.89
2018-12-22T11:04:06.636Z,71.51
2018-12-22T11:05:06.616Z,71.61
2018-12-22T11:06:06.600Z,72.13
2018-12-22T11:07:06.598Z,71.72
2018-12-22T11:08:06.584Z,71.30
2018-12-22T11:09:06.590Z,71.30
2018-12-22T11:10:06.557Z,71.10
2018-12-22T11:11:06.554Z,71.00
2018-12-22T11:12:06.549Z,71.10
2018-12-22T11:13:06.531Z,71.10
2018-12-22T11:14:06.546Z,71.30
2018-12-22T11:15:06.502Z,70.79
2018-12-22T11:16:06.498Z,71.41
2018-12-22T11:17:06.477Z,71.51
2018-12-22T11:18:06.476Z,71.10
2018-12-22T11:19:06.581Z,72.13
2018-12-22T11:20:06.445Z,71.00
2018-12-22T11:21:06.430Z,71.72
2018-12-22T11:22:06.427Z,70.89
2018-12-22T11:23:06.409Z,71.30
2018-12-22T11:24:06.422Z,71.61
2018-12-22T11:25:06.392Z,72.06
2018-12-22T11:26:06.380Z,72.58
2018-12-22T11:27:06.372Z,72.03
2018-12-22T11:28:06.355Z,72.58
2018-12-22T11:29:06.363Z,72.99
2018-12-22T11:30:06.336Z,72.47
2018-12-22T11:31:06.321Z,72.23
2018-12-22T11:32:06.317Z,72.67
2018-12-22T11:33:06.333Z,72.58
2018-12-22T11:34:06.319Z,72.99
2018-12-22T11:35:06.282Z,72.96
2018-12-22T11:36:06.327Z,73.19
2018-12-22T11:37:06.253Z,72.75
2018-12-22T11:39:07.484Z,72.75
2018-12-22T11:42:07.384Z,72.33
2018-12-22T11:43:06.224Z,71.92
2018-12-22T11:44:06.189Z,72.64
2018-12-22T11:45:06.232Z,72.30
2018-12-22T11:46:06.188Z,72.09
2018-12-22T11:47:06.166Z,72.54
2018-12-22T11:48:06.214Z,72.75
2018-12-22T11:49:06.319Z,72.96
2018-12-22T11:50:06.140Z,73.16
2018-12-22T11:51:06.098Z,72.03
2018-12-22T11:52:06.089Z,72.78
2018-12-22T11:53:06.082Z,72.16
2018-12-22T11:54:06.075Z,72.78
2018-12-22T11:55:06.068Z,73.19
2018-12-22T11:56:06.044Z,73.40
2018-12-22T11:57:06.027Z,73.40
2018-12-22T11:58:06.023Z,73.50
2018-12-22T11:59:06.008Z,73.60
2018-12-22T12:00:06.110Z,73.33
2018-12-22T12:01:06.001Z,73.43
2018-12-22T12:02:09.934Z,73.85
2018-12-22T12:03:05.974Z,73.71
2018-12-22T12:04:05.962Z,73.71
2018-12-22T12:09:08.656Z,73.30
2018-12-22T12:10:08.674Z,73.54
2018-12-22T12:11:08.644Z,73.71
2018-12-22T12:12:08.473Z,73.91
2018-12-22T12:13:08.449Z,73.85
2018-12-22T12:14:08.440Z,74.33
2018-12-22T12:15:08.458Z,74.02
2018-12-22T12:16:08.422Z,73.95
2018-12-22T12:17:08.408Z,73.71
2018-12-22T12:18:08.402Z,73.81
2018-12-22T12:19:08.382Z,73.60
2018-12-22T12:20:08.392Z,73.91
2018-12-22T12:21:08.391Z,73.81
2018-12-22T12:22:08.356Z,73.64
2018-12-22T12:23:08.347Z,73.64
2018-12-22T12:24:08.346Z,74.05
2018-12-22T12:25:08.373Z,74.26
2018-12-22T12:26:08.309Z,73.95
2018-12-22T12:27:08.297Z,73.74
2018-12-22T12:28:08.285Z,73.71
2018-12-22T12:29:08.271Z,73.81
2018-12-22T12:30:08.262Z,73.91
2018-12-22T12:31:08.272Z,73.91
2018-12-22T12:32:08.248Z,73.95
2018-12-22T12:33:08.228Z,73.85
2018-12-22T12:34:08.232Z,73.95
2018-12-22T12:35:08.210Z,74.77
2018-12-22T12:36:08.207Z,74.05
2018-12-22T12:37:08.198Z,74.15
2018-12-22T12:38:08.172Z,74.36
2018-12-22T12:39:08.166Z,73.74
2018-12-22T12:40:08.157Z,74.05
2018-12-22T12:41:08.167Z,74.22
2018-12-22T12:42:08.127Z,73.81
2018-12-22T12:43:08.122Z,73.19
2018-12-22T12:44:08.105Z,72.88
2018-12-22T12:45:08.090Z,72.06
2018-12-22T12:46:08.099Z,71.85
2018-12-22T12:47:08.071Z,71.03
2018-12-22T12:48:08.062Z,71.23
2018-12-22T12:49:08.046Z,69.69
2018-12-22T12:50:08.048Z,70.72
2018-12-22T12:51:08.052Z,69.27
2018-12-22T12:52:08.032Z,69.79
2018-12-22T12:53:09.780Z,69.38
2018-12-22T12:54:08.024Z,69.17
2018-12-22T12:55:07.984Z,70.00
2018-12-22T12:56:08.024Z,69.59
2018-12-22T12:57:07.968Z,69.82
2018-12-22T12:58:07.945Z,69.51
2018-12-22T12:59:07.931Z,70.62
2018-12-22T13:00:07.924Z,70.31